Upland, Louisiana
Current Conditions -  °F | °C
As of 5:55 PM on Wednesday 28 Jan 2015 (Local Time) from KBQP Reporting Station
Clear Clear  
Wind Chill: 64°   Ceiling: Unl
Heat Index: 64°   Visibility: 10mi
Dew Point: 42°   Wind: 3mph
Humidity: 45%   Direction: 130°SE
Pressure: 30.11"   Gusts: NA
Location:  32.8721°N, 91.912°W
Report Text: KBQP 282355Z AUTO 13003KT 10SM CLR 18/05 A3011 RMK AO2 T01750053 10215 20166
Loading
Personal Weather Stations






























Interactive Weather Map New forecast layout! Learn more

10-Day Weather Forecast

Advertisements
Track Severe Weather on mobile